Time;durP1;ratioP1;P1;durP2;ratioP2;P2;SDS_P1;SDS_P2;PMS_P1;PMS_P2;Temp;Humidity;BMP_temperature;BMP_pressure;BME280_temperature;BME280_humidity;BME280_pressure;Samples;Min_cycle;Max_cycle;Signal;HPM_P1;HPM_P2
2022/08/18 00:01:13;;;;;;;9.50;4.38;;;20.00;99.90;;;;;;5009103;28;20210;-88
2022/08/18 00:03:40;;;;;;;13.57;5.18;;;20.10;99.90;;;;;;5009131;28;20175;-87
2022/08/18 00:06:06;;;;;;;9.18;4.90;;;20.10;99.90;;;;;;5009143;28;20260;-88
2022/08/18 00:08:32;;;;;;;12.25;5.63;;;20.10;99.90;;;;;;5009300;28;20234;-85
2022/08/18 00:10:59;;;;;;;8.30;5.43;;;20.10;99.90;;;;;;5009215;28;20192;-86
2022/08/18 00:13:25;;;;;;;7.18;4.57;;;20.00;99.90;;;;;;5009823;28;20573;-86
2022/08/18 00:15:51;;;;;;;7.40;5.28;;;19.90;99.90;;;;;;5009459;28;20622;-86
2022/08/18 00:18:17;;;;;;;13.25;5.30;;;19.90;99.90;;;;;;5009297;28;20202;-86
2022/08/18 00:20:43;;;;;;;9.13;5.53;;;19.90;99.90;;;;;;5009914;28;20207;-85
2022/08/18 00:23:09;;;;;;;8.63;4.82;;;19.90;99.90;;;;;;4992717;28;20202;-86
2022/08/18 00:25:35;;;;;;;8.07;4.68;;;19.80;99.90;;;;;;4992805;28;20281;-86
2022/08/18 00:28:02;;;;;;;9.38;5.55;;;19.80;99.90;;;;;;4992796;28;20189;-86
2022/08/18 00:30:28;;;;;;;6.15;5.13;;;19.80;99.90;;;;;;4992449;28;20268;-87
2022/08/18 00:32:56;;;;;;;5.78;4.75;;;19.80;99.90;;;;;;5010283;28;20175;-86
2022/08/18 00:35:30;;;;;;;6.65;4.90;;;19.70;99.90;;;;;;4992194;28;20681;-87
2022/08/18 00:37:59;;;;;;;8.90;5.95;;;19.70;99.90;;;;;;4992541;28;20207;-86
2022/08/18 00:40:32;;;;;;;8.32;5.07;;;19.70;99.90;;;;;;4992293;28;20566;-87
2022/08/18 00:43:01;;;;;;;8.20;5.78;;;19.60;99.90;;;;;;4992193;28;20274;-85
2022/08/18 00:45:37;;;;;;;9.27;5.60;;;19.50;99.90;;;;;;5003634;28;20183;-86
2022/08/18 00:48:04;;;;;;;8.25;5.30;;;19.60;99.90;;;;;;5010987;28;20170;-86
2022/08/18 00:50:48;;;;;;;6.07;5.47;;;19.60;99.90;;;;;;5008124;28;20211;-86
2022/08/18 00:53:34;;;;;;;9.73;6.43;;;19.50;99.90;;;;;;4996365;28;20580;-86
2022/08/18 00:56:07;;;;;;;9.68;6.13;;;19.50;99.90;;;;;;4996207;28;20710;-86
2022/08/18 00:58:39;;;;;;;6.30;5.68;;;19.50;99.90;;;;;;4995917;28;20193;-86
2022/08/18 01:01:10;;;;;;;8.75;6.40;;;19.50;99.90;;;;;;5013488;28;20661;-87
2022/08/18 01:03:38;;;;;;;8.13;5.85;;;19.50;99.90;;;;;;4995938;28;20186;-85
2022/08/18 01:06:25;;;;;;;13.10;6.60;;;19.50;99.90;;;;;;5013342;28;20739;-85
2022/08/18 01:08:51;;;;;;;9.55;6.43;;;19.50;99.90;;;;;;4995840;28;20186;-85
2022/08/18 01:11:16;;;;;;;10.88;6.47;;;19.50;99.90;;;;;;4995666;28;20572;-85
2022/08/18 01:13:43;;;;;;;9.07;6.65;;;19.50;99.90;;;;;;4995746;28;20184;-86
2022/08/18 01:21:50;;;;;;;9.32;6.47;;;19.50;99.90;;;;;;5013301;28;20271;-85
2022/08/18 01:25:58;;;;;;;7.13;6.18;;;19.50;99.90;;;;;;4995757;28;21017;-85
2022/08/18 01:27:11;;;;;;;8.15;6.18;;;19.50;99.90;;;;;;5013163;28;20633;-85
2022/08/18 01:29:39;;;;;;;9.52;6.40;;;19.50;99.90;;;;;;4995119;28;20290;-86
2022/08/18 01:32:05;;;;;;;9.68;6.97;;;19.40;99.90;;;;;;5012649;28;20674;-87
2022/08/18 01:34:31;;;;;;;8.45;7.07;;;19.40;99.90;;;;;;4995446;28;20183;-85
2022/08/18 01:36:58;;;;;;;9.98;7.90;;;19.40;99.90;;;;;;4995289;28;20257;-87
2022/08/18 01:39:24;;;;;;;10.52;8.25;;;19.30;99.90;;;;;;4994981;28;20262;-87
2022/08/18 01:41:49;;;;;;;12.63;8.65;;;19.30;99.90;;;;;;4995231;28;20274;-86
2022/08/18 01:44:15;;;;;;;9.90;8.88;;;19.30;99.90;;;;;;4995169;28;20183;-85
2022/08/18 01:46:41;;;;;;;13.05;10.18;;;19.30;99.90;;;;;;4995163;28;20193;-84
2022/08/18 01:49:09;;;;;;;15.60;9.60;;;19.30;99.90;;;;;;4995240;28;20175;-87
2022/08/18 01:51:36;;;;;;;12.40;9.68;;;19.30;99.90;;;;;;4994902;28;20598;-86
2022/08/18 01:54:03;;;;;;;14.73;10.43;;;19.30;99.90;;;;;;4994621;28;20613;-86
2022/08/18 01:56:29;;;;;;;14.77;10.15;;;19.30;99.90;;;;;;4994777;28;20234;-86
2022/08/18 01:58:55;;;;;;;11.55;10.35;;;19.40;99.90;;;;;;5011796;28;20171;-85
2022/08/18 02:01:23;;;;;;;12.93;9.85;;;19.40;99.90;;;;;;4994603;28;20168;-85
2022/08/18 02:03:54;;;;;;;13.50;10.50;;;19.40;99.90;;;;;;4994963;28;20175;-87
2022/08/18 02:06:20;;;;;;;16.42;11.18;;;19.40;99.90;;;;;;4994934;28;20748;-86
2022/08/18 02:08:46;;;;;;;13.88;10.63;;;19.40;99.90;;;;;;4994824;28;20210;-85
2022/08/18 02:11:13;;;;;;;14.05;10.93;;;19.40;99.90;;;;;;4994807;28;20205;-85
2022/08/18 02:13:39;;;;;;;13.90;10.20;;;19.30;99.90;;;;;;4995143;28;20171;-86
2022/08/18 02:16:06;;;;;;;11.98;10.25;;;19.40;99.90;;;;;;4994560;28;20222;-86
2022/08/18 02:18:34;;;;;;;15.02;10.48;;;19.30;99.90;;;;;;4994526;28;20171;-85
2022/08/18 02:21:07;;;;;;;11.82;10.15;;;19.30;99.90;;;;;;4994493;28;20246;-85
2022/08/18 02:23:33;;;;;;;12.10;10.63;;;19.30;99.90;;;;;;4994410;28;20186;-86
2022/08/18 02:26:04;;;;;;;14.05;10.02;;;19.30;99.90;;;;;;4994302;28;20215;-87
2022/08/18 02:28:30;;;;;;;15.00;10.20;;;19.30;99.90;;;;;;4994474;28;20180;-86
2022/08/18 02:30:56;;;;;;;13.18;10.70;;;19.30;99.90;;;;;;4994071;28;20209;-85
2022/08/18 02:33:21;;;;;;;12.70;10.48;;;19.30;99.90;;;;;;4994203;28;20187;-87
2022/08/18 02:35:53;;;;;;;14.18;10.70;;;19.30;99.90;;;;;;5011345;28;20182;-85
2022/08/18 02:38:19;;;;;;;13.82;10.88;;;19.30;99.90;;;;;;4994272;28;20206;-85
2022/08/18 02:40:45;;;;;;;14.93;10.35;;;19.30;99.90;;;;;;4994194;28;20646;-87
2022/08/18 02:43:11;;;;;;;14.25;10.07;;;19.30;99.90;;;;;;4994481;28;20182;-85
2022/08/18 02:45:38;;;;;;;13.43;10.23;;;19.30;99.90;;;;;;4993913;28;20171;-85
2022/08/18 02:48:05;;;;;;;12.50;10.90;;;19.30;99.90;;;;;;5011490;28;20199;-86
2022/08/18 02:50:31;;;;;;;14.05;10.02;;;19.30;99.90;;;;;;4993623;28;20214;-87
2022/08/18 02:52:57;;;;;;;13.10;10.48;;;19.30;99.90;;;;;;4993690;28;20183;-86
2022/08/18 02:55:25;;;;;;;14.68;10.63;;;19.30;99.90;;;;;;4997968;28;20191;-85
2022/08/18 02:57:52;;;;;;;13.90;10.98;;;19.30;99.90;;;;;;5010069;28;20200;-85
2022/08/18 03:00:18;;;;;;;12.10;10.52;;;19.30;99.90;;;;;;4993498;28;20204;-85
2022/08/18 03:02:52;;;;;;;12.30;11.00;;;19.30;99.90;;;;;;5010043;28;20209;-85
2022/08/18 03:05:18;;;;;;;12.98;10.27;;;19.30;99.90;;;;;;5009801;28;20178;-85
2022/08/18 03:07:45;;;;;;;12.20;10.52;;;19.30;99.90;;;;;;5009993;28;20167;-85
2022/08/18 03:10:13;;;;;;;12.98;10.40;;;19.30;99.90;;;;;;5010120;28;20202;-86
2022/08/18 03:12:42;;;;;;;13.43;11.52;;;19.20;99.90;;;;;;5011196;28;20511;-85
2022/08/18 03:15:08;;;;;;;12.68;10.65;;;19.20;99.90;;;;;;5010072;28;20179;-86
2022/08/18 03:17:35;;;;;;;12.88;10.50;;;19.10;99.90;;;;;;5011076;28;20617;-85
2022/08/18 03:20:01;;;;;;;14.45;10.25;;;19.10;99.90;;;;;;5009684;28;20199;-85
2022/08/18 03:22:27;;;;;;;11.80;10.55;;;19.10;99.90;;;;;;4993310;28;20193;-85
2022/08/18 03:24:53;;;;;;;15.15;11.02;;;19.00;99.90;;;;;;4993238;28;20223;-85
2022/08/18 03:27:19;;;;;;;11.48;10.27;;;19.10;99.90;;;;;;4993363;28;20766;-86
2022/08/18 03:29:44;;;;;;;17.52;11.82;;;19.00;99.90;;;;;;4993070;28;20297;-86
2022/08/18 03:32:10;;;;;;;12.80;11.23;;;19.00;99.90;;;;;;5010353;28;20183;-86
2022/08/18 03:34:36;;;;;;;13.20;11.90;;;19.00;99.90;;;;;;5009338;28;20179;-85
2022/08/18 03:37:02;;;;;;;19.48;12.32;;;19.00;99.90;;;;;;5009380;28;20298;-86
2022/08/18 03:39:28;;;;;;;14.63;13.05;;;19.10;99.90;;;;;;5009381;28;20210;-85
2022/08/18 03:41:56;;;;;;;15.38;13.20;;;19.00;99.90;;;;;;5009424;28;20640;-86
2022/08/18 03:44:22;;;;;;;14.63;11.50;;;19.00;99.90;;;;;;5009565;28;20195;-86
2022/08/18 03:46:50;;;;;;;17.05;13.38;;;19.00;99.90;;;;;;5009332;28;20175;-85
2022/08/18 03:49:17;;;;;;;15.85;12.95;;;19.00;99.90;;;;;;5009408;28;20199;-85
2022/08/18 03:51:45;;;;;;;14.80;12.35;;;19.00;99.90;;;;;;4995457;28;20253;-85
2022/08/18 03:54:12;;;;;;;15.13;11.98;;;19.00;99.90;;;;;;4992926;28;20191;-85
2022/08/18 03:56:41;;;;;;;13.55;11.73;;;19.00;99.90;;;;;;5009278;28;20675;-87
2022/08/18 03:59:15;;;;;;;15.77;13.10;;;19.00;99.90;;;;;;5009204;28;20179;-85
2022/08/18 04:01:42;;;;;;;17.52;13.18;;;19.00;99.90;;;;;;5009160;28;20553;-86
2022/08/18 04:04:13;;;;;;;16.42;13.27;;;19.00;99.90;;;;;;5008155;28;20556;-86
2022/08/18 04:06:50;;;;;;;14.70;12.18;;;18.90;99.90;;;;;;5009384;28;20171;-86
2022/08/18 04:09:17;;;;;;;14.52;12.98;;;18.90;99.90;;;;;;5009183;28;20264;-86
2022/08/18 04:11:44;;;;;;;16.50;13.85;;;18.90;99.90;;;;;;5009234;28;20254;-85
2022/08/18 04:14:19;;;;;;;18.23;13.63;;;18.90;99.90;;;;;;5009141;28;20639;-85
2022/08/18 04:16:47;;;;;;;19.25;13.32;;;18.90;99.90;;;;;;5009079;28;20203;-86
2022/08/18 04:19:15;;;;;;;16.67;13.45;;;18.90;99.90;;;;;;5010495;28;20694;-85
2022/08/18 04:21:42;;;;;;;18.95;13.13;;;18.90;99.90;;;;;;4996865;28;20190;-86
2022/08/18 04:24:09;;;;;;;15.95;13.57;;;18.90;99.90;;;;;;4996789;28;20691;-85
2022/08/18 04:26:42;;;;;;;14.93;13.02;;;18.90;99.90;;;;;;4996743;28;20190;-85
2022/08/18 04:29:09;;;;;;;16.15;13.32;;;18.90;99.90;;;;;;4996691;28;20338;-85
2022/08/18 04:31:36;;;;;;;16.80;13.75;;;18.90;99.90;;;;;;5014553;28;20172;-86
2022/08/18 04:34:02;;;;;;;19.40;14.63;;;18.90;99.90;;;;;;4996486;28;20187;-86
2022/08/18 04:36:30;;;;;;;15.98;13.68;;;18.90;99.90;;;;;;4996227;28;20207;-86
2022/08/18 04:38:57;;;;;;;15.15;12.77;;;18.90;99.90;;;;;;4996558;28;20175;-85
2022/08/18 04:41:25;;;;;;;17.05;13.48;;;18.90;99.90;;;;;;5012906;28;20274;-86
2022/08/18 04:43:57;;;;;;;18.98;14.35;;;18.80;99.90;;;;;;5012976;28;20190;-86
2022/08/18 04:46:28;;;;;;;18.17;14.77;;;18.90;99.90;;;;;;5012885;28;20171;-85
2022/08/18 04:48:57;;;;;;;19.75;13.95;;;18.90;99.90;;;;;;5012631;28;20168;-86
2022/08/18 04:51:26;;;;;;;20.40;15.05;;;18.90;99.90;;;;;;5013287;28;20183;-86
2022/08/18 04:53:52;;;;;;;15.30;13.70;;;18.90;99.90;;;;;;4996423;28;20175;-88
2022/08/18 04:56:26;;;;;;;15.77;14.07;;;19.00;99.90;;;;;;4995837;28;20183;-85
2022/08/18 04:58:53;;;;;;;16.58;13.40;;;19.00;99.90;;;;;;5013856;28;20167;-86
2022/08/18 05:01:22;;;;;;;23.67;14.63;;;19.10;99.90;;;;;;4996234;28;20354;-85
2022/08/18 05:03:52;;;;;;;19.48;14.55;;;19.00;99.90;;;;;;4995900;28;20167;-86
2022/08/18 05:06:24;;;;;;;19.60;14.18;;;19.10;99.90;;;;;;4996007;28;20635;-86
2022/08/18 05:08:52;;;;;;;18.40;14.75;;;19.10;99.90;;;;;;4995910;28;20168;-87
2022/08/18 05:11:18;;;;;;;16.73;14.35;;;19.10;99.90;;;;;;4996074;28;20198;-87
2022/08/18 05:13:47;;;;;;;19.92;13.02;;;19.10;99.90;;;;;;5013662;28;20227;-86
2022/08/18 05:16:13;;;;;;;16.77;13.68;;;19.10;99.90;;;;;;4996109;28;20171;-86
2022/08/18 05:18:39;;;;;;;15.73;13.73;;;19.10;99.90;;;;;;4996030;28;20175;-87
2022/08/18 05:21:14;;;;;;;18.90;13.55;;;19.10;99.90;;;;;;5013688;28;20222;-87
2022/08/18 05:23:44;;;;;;;16.88;13.90;;;19.10;99.90;;;;;;4995948;28;20549;-86
2022/08/18 05:26:13;;;;;;;20.88;14.63;;;19.10;99.90;;;;;;4995699;28;20206;-85
2022/08/18 05:28:39;;;;;;;14.95;13.38;;;19.10;99.90;;;;;;4995652;28;20544;-85
2022/08/18 05:31:11;;;;;;;17.88;15.35;;;19.20;99.90;;;;;;4995462;28;20195;-86
2022/08/18 05:33:41;;;;;;;25.80;15.00;;;19.20;99.90;;;;;;4991336;28;20549;-85
2022/08/18 05:36:47;;;;;;;18.20;14.43;;;19.20;99.90;;;;;;5010503;28;20175;-86
2022/08/18 05:39:37;;;;;;;19.40;14.77;;;19.30;99.90;;;;;;4958665;28;20368;-85
2022/08/18 05:42:18;;;;;;;19.65;15.43;;;19.40;99.90;;;;;;5007230;28;20195;-85
2022/08/18 05:44:54;;;;;;;21.35;15.15;;;19.40;99.90;;;;;;4991832;28;20194;-86
2022/08/18 05:47:31;;;;;;;18.52;15.77;;;19.50;99.90;;;;;;4995405;28;20310;-88
2022/08/18 05:50:06;;;;;;;20.15;15.07;;;19.50;99.90;;;;;;4994958;28;20226;-86
2022/08/18 05:52:44;;;;;;;17.45;15.32;;;19.60;99.90;;;;;;4995269;28;20164;-85
2022/08/18 05:58:19;;;;;;;17.98;14.70;;;19.60;99.90;;;;;;5012805;28;20690;-86
2022/08/18 06:00:52;;;;;;;18.27;14.93;;;19.60;99.90;;;;;;4979289;28;20207;-86
2022/08/18 06:03:28;;;;;;;19.58;15.80;;;19.60;99.90;;;;;;4975707;28;20590;-86
2022/08/18 06:05:56;;;;;;;16.80;14.25;;;19.60;99.90;;;;;;4975407;28;20181;-85
2022/08/18 06:08:36;;;;;;;17.85;14.52;;;19.70;99.90;;;;;;4993129;28;20170;-86
2022/08/18 06:11:02;;;;;;;18.63;15.32;;;19.70;99.90;;;;;;4975196;28;20208;-85
2022/08/18 06:13:31;;;;;;;19.05;15.25;;;19.80;99.90;;;;;;4991100;28;20614;-86
2022/08/18 06:16:01;;;;;;;16.00;13.73;;;19.80;99.90;;;;;;4994835;28;20632;-86
2022/08/18 06:18:36;;;;;;;14.60;12.80;;;19.90;99.90;;;;;;4992786;28;20207;-86
2022/08/18 06:21:42;;;;;;;15.15;13.48;;;19.90;99.90;;;;;;4993754;28;20245;-86
2022/08/18 06:24:39;;;;;;;18.83;13.73;;;20.00;99.90;;;;;;4994155;28;20227;-87
2022/08/18 06:27:50;;;;;;;20.52;14.77;;;20.10;99.90;;;;;;4974328;28;20727;-85
2022/08/18 06:30:31;;;;;;;18.35;14.73;;;20.10;99.90;;;;;;4990578;28;20290;-88
2022/08/18 06:33:22;;;;;;;18.02;14.40;;;20.20;99.90;;;;;;4991920;28;20179;-87
2022/08/18 06:36:01;;;;;;;17.85;14.65;;;20.20;99.90;;;;;;4974863;28;20187;-86
2022/08/18 06:38:39;;;;;;;17.92;14.43;;;20.30;99.90;;;;;;4989444;28;20210;-87
2022/08/18 06:41:18;;;;;;;21.15;16.20;;;20.40;99.90;;;;;;4993250;28;20264;-86
2022/08/18 06:43:59;;;;;;;20.13;15.70;;;20.30;99.90;;;;;;4994007;28;20266;-88
2022/08/18 06:46:46;;;;;;;24.08;18.02;;;20.40;99.90;;;;;;4992509;28;20167;-86
2022/08/18 06:49:37;;;;;;;20.90;16.45;;;20.40;99.90;;;;;;4980716;28;20313;-86
2022/08/18 06:52:24;;;;;;;19.48;15.23;;;20.50;99.90;;;;;;4990301;28;20584;-86
2022/08/18 06:54:51;;;;;;;19.08;13.93;;;20.50;99.90;;;;;;4999542;28;20302;-86
2022/08/18 06:57:33;;;;;;;22.85;17.65;;;20.50;99.90;;;;;;4997102;28;20691;-86
2022/08/18 07:00:17;;;;;;;20.85;16.88;;;20.60;99.90;;;;;;4984246;28;20203;-87
2022/08/18 07:02:57;;;;;;;18.35;15.50;;;20.70;99.90;;;;;;4980203;28;20703;-86
2022/08/18 07:05:32;;;;;;;24.58;20.17;;;20.70;99.90;;;;;;4974791;28;20176;-86
2022/08/18 07:08:27;;;;;;;20.13;17.00;;;20.70;99.90;;;;;;4974015;28;20182;-85
2022/08/18 07:10:53;;;;;;;24.42;17.75;;;20.80;99.90;;;;;;4975890;28;20785;-86
2022/08/18 07:13:25;;;;;;;21.83;16.98;;;20.80;99.90;;;;;;4979391;28;20278;-86
2022/08/18 07:16:11;;;;;;;21.80;16.50;;;20.90;99.90;;;;;;4974015;28;20226;-87
2022/08/18 07:18:37;;;;;;;21.27;17.23;;;21.10;99.90;;;;;;4975547;28;20208;-86
2022/08/18 07:21:03;;;;;;;22.08;17.20;;;21.20;99.90;;;;;;4981321;28;20988;-87
2022/08/18 07:23:38;;;;;;;24.75;17.67;;;21.20;99.90;;;;;;4973734;28;20214;-86
2022/08/18 07:26:16;;;;;;;20.02;16.50;;;21.10;99.90;;;;;;4973859;28;20302;-86
2022/08/18 07:28:48;;;;;;;20.13;16.05;;;21.20;99.90;;;;;;4987718;28;20650;-87
2022/08/18 07:31:41;;;;;;;19.75;16.98;;;21.20;99.90;;;;;;4992834;28;20226;-86
2022/08/18 07:34:17;;;;;;;24.35;17.90;;;21.20;99.90;;;;;;5007435;28;20181;-87
2022/08/18 07:37:00;;;;;;;23.27;18.13;;;21.20;99.90;;;;;;4975808;28;20266;-86
2022/08/18 07:39:39;;;;;;;21.27;18.83;;;21.30;99.90;;;;;;4973593;28;20342;-87
2022/08/18 07:42:17;;;;;;;19.73;16.13;;;21.50;99.90;;;;;;4973538;28;20171;-87
2022/08/18 07:45:04;;;;;;;21.63;18.50;;;21.70;99.90;;;;;;4973558;28;20188;-86
2022/08/18 07:48:02;;;;;;;26.00;18.55;;;21.90;99.90;;;;;;4972903;28;20195;-86
2022/08/18 07:50:34;;;;;;;23.08;16.85;;;21.90;99.90;;;;;;4985601;28;20209;-85
2022/08/18 07:53:18;;;;;;;22.20;18.05;;;21.90;99.90;;;;;;4985105;28;20183;-86
2022/08/18 07:55:51;;;;;;;21.65;17.42;;;21.90;99.90;;;;;;4988088;28;20270;-86
2022/08/18 07:58:45;;;;;;;21.33;18.00;;;22.00;99.90;;;;;;4993210;28;20198;-87
2022/08/18 08:01:29;;;;;;;17.55;15.15;;;22.00;99.90;;;;;;4974292;28;20207;-87
2022/08/18 08:03:58;;;;;;;20.85;17.05;;;22.10;99.90;;;;;;4974276;28;20489;-85
2022/08/18 08:06:32;;;;;;;17.08;15.27;;;22.30;99.90;;;;;;4990875;28;20168;-87
2022/08/18 08:09:24;;;;;;;23.08;17.10;;;22.30;99.90;;;;;;4976626;28;20178;-86
2022/08/18 08:12:16;;;;;;;18.23;15.32;;;22.40;99.90;;;;;;4976122;28;20182;-86
2022/08/18 08:14:48;;;;;;;23.02;17.17;;;22.50;99.90;;;;;;4993731;28;20167;-86
2022/08/18 08:17:32;;;;;;;20.23;17.80;;;22.50;99.90;;;;;;4993066;28;20207;-86
2022/08/18 08:20:19;;;;;;;19.70;17.20;;;22.40;99.90;;;;;;5005619;28;20207;-86
2022/08/18 08:23:38;;;;;;;20.13;17.63;;;22.30;99.90;;;;;;4974002;28;20199;-86
2022/08/18 08:26:16;;;;;;;23.33;18.73;;;22.30;99.90;;;;;;4910983;29;20617;-86
2022/08/18 08:28:48;;;;;;;20.63;16.00;;;22.20;99.90;;;;;;4973007;28;20262;-86
2022/08/18 08:31:27;;;;;;;18.17;15.73;;;22.30;99.90;;;;;;4973245;28;20219;-86
2022/08/18 08:34:01;;;;;;;20.42;15.40;;;22.20;99.90;;;;;;4972543;28;20211;-87
2022/08/18 08:36:36;;;;;;;19.77;16.23;;;22.10;99.90;;;;;;4991463;28;20646;-86
2022/08/18 08:39:08;;;;;;;19.27;16.30;;;22.10;99.90;;;;;;5008935;28;20647;-86
2022/08/18 08:41:50;;;;;;;18.65;15.38;;;22.00;99.90;;;;;;4991897;28;20179;-87
2022/08/18 08:44:39;;;;;;;22.52;17.10;;;22.00;99.90;;;;;;4972912;28;20666;-85
2022/08/18 08:47:28;;;;;;;17.25;14.07;;;21.90;99.90;;;;;;4972722;28;20547;-86
2022/08/18 08:50:01;;;;;;;19.40;16.90;;;21.80;99.90;;;;;;4973132;28;20282;-86
2022/08/18 08:52:48;;;;;;;22.92;17.40;;;21.80;99.90;;;;;;4992207;28;20183;-87
2022/08/18 08:55:24;;;;;;;20.05;15.98;;;21.80;99.90;;;;;;4991675;28;20191;-86
2022/08/18 08:58:09;;;;;;;17.90;14.48;;;21.80;99.90;;;;;;5005916;28;20195;-86
2022/08/18 09:00:37;;;;;;;20.48;16.40;;;21.90;99.90;;;;;;4972874;28;20283;-85
2022/08/18 09:03:25;;;;;;;18.98;15.15;;;21.90;99.90;;;;;;4975966;28;20187;-87
2022/08/18 09:05:59;;;;;;;20.90;16.75;;;21.90;99.90;;;;;;4992080;28;20178;-86
2022/08/18 09:08:59;;;;;;;21.63;16.85;;;21.80;99.90;;;;;;4993323;28;20552;-86
2022/08/18 09:11:51;;;;;;;20.73;17.48;;;21.80;99.90;;;;;;5013500;28;20488;-85
2022/08/18 09:14:39;;;;;;;20.95;16.17;;;21.80;99.90;;;;;;4976303;28;20164;-86
2022/08/18 09:17:14;;;;;;;22.48;17.50;;;21.90;99.90;;;;;;4975930;28;20664;-85
2022/08/18 09:19:47;;;;;;;21.23;17.38;;;22.10;99.90;;;;;;4993742;28;20199;-88
2022/08/18 09:22:21;;;;;;;21.17;16.17;;;22.30;99.90;;;;;;4995145;28;20278;-88
2022/08/18 09:24:52;;;;;;;21.75;17.58;;;22.40;99.90;;;;;;5012558;28;20245;-86
2022/08/18 09:27:45;;;;;;;19.58;16.08;;;22.50;99.90;;;;;;5012031;28;20185;-86
2022/08/18 09:30:50;;;;;;;20.00;16.25;;;22.70;99.90;;;;;;5003039;28;20211;-87
2022/08/18 09:33:41;;;;;;;16.88;14.30;;;22.80;99.90;;;;;;4900832;29;20555;-86
2022/08/18 09:36:34;;;;;;;17.35;14.98;;;22.80;99.90;;;;;;4994821;28;20531;-86
2022/08/18 09:42:26;;;;;;;20.92;14.63;;;23.20;99.90;;;;;;5012616;28;20229;-87
2022/08/18 09:44:52;;;;;;;18.52;15.32;;;23.30;99.90;;;;;;4995254;28;20167;-85
2022/08/18 09:47:22;;;;;;;21.73;16.02;;;23.30;99.90;;;;;;4994916;28;20555;-86
2022/08/18 09:49:52;;;;;;;20.05;14.65;;;23.20;99.90;;;;;;4994980;28;20199;-86
2022/08/18 09:52:21;;;;;;;22.05;13.38;;;23.30;99.90;;;;;;4975268;28;20172;-86
2022/08/18 09:55:00;;;;;;;16.73;13.23;;;23.30;99.90;;;;;;4993032;28;20189;-86
2022/08/18 09:57:39;;;;;;;19.55;13.60;;;23.50;99.90;;;;;;5008508;28;20203;-86
2022/08/18 10:00:14;;;;;;;17.02;13.13;;;23.50;99.90;;;;;;4991958;28;20236;-85
2022/08/18 10:02:42;;;;;;;17.80;14.52;;;23.50;99.90;;;;;;4991196;28;20182;-85
2022/08/18 10:05:20;;;;;;;16.15;13.10;;;23.50;99.90;;;;;;4991850;28;20172;-87
2022/08/18 10:07:49;;;;;;;12.63;10.55;;;23.60;99.90;;;;;;4992819;28;20191;-87
2022/08/18 10:10:38;;;;;;;15.07;11.73;;;23.80;99.90;;;;;;4991426;28;20645;-88
2022/08/18 10:13:31;;;;;;;14.18;11.07;;;24.10;99.90;;;;;;4994577;28;20242;-86
2022/08/18 10:16:27;;;;;;;15.85;12.38;;;24.30;99.90;;;;;;4955622;28;20195;-86
2022/08/18 10:19:14;;;;;;;12.63;11.05;;;24.40;99.90;;;;;;5012049;28;20179;-85
2022/08/18 10:22:11;;;;;;;13.65;10.88;;;24.60;99.90;;;;;;5012393;28;20179;-86
2022/08/18 10:24:52;;;;;;;13.65;10.45;;;24.70;99.90;;;;;;4957595;28;20746;-86
2022/08/18 10:27:45;;;;;;;11.57;10.32;;;24.70;99.90;;;;;;4987764;28;20557;-86
2022/08/18 10:30:33;;;;;;;14.43;9.73;;;24.80;99.90;;;;;;4981944;28;20631;-86
2022/08/18 10:33:04;;;;;;;14.75;11.85;;;24.90;99.90;;;;;;4972621;28;20176;-88
2022/08/18 10:35:37;;;;;;;15.07;11.63;;;24.80;99.90;;;;;;4972145;28;20199;-86
2022/08/18 10:38:28;;;;;;;13.30;9.32;;;24.70;99.90;;;;;;4971639;28;20208;-86
2022/08/18 10:41:02;;;;;;;15.88;11.68;;;24.60;99.90;;;;;;4971818;28;20205;-87
2022/08/18 10:43:36;;;;;;;13.60;11.77;;;24.60;99.90;;;;;;4990571;28;20187;-85
2022/08/18 10:46:02;;;;;;;15.15;12.35;;;24.50;99.90;;;;;;4987105;28;20173;-86
2022/08/18 10:48:33;;;;;;;11.85;10.20;;;24.50;99.90;;;;;;4973051;28;20259;-85
2022/08/18 10:51:08;;;;;;;12.55;9.88;;;24.40;99.90;;;;;;4984220;28;20211;-86
2022/08/18 10:53:57;;;;;;;13.68;10.60;;;24.50;99.90;;;;;;4990676;28;20271;-87
2022/08/18 10:56:56;;;;;;;12.38;10.70;;;24.50;99.90;;;;;;4981130;28;20771;-86
2022/08/18 11:00:07;;;;;;;12.10;10.10;;;24.40;99.90;;;;;;4990439;28;20238;-87
2022/08/18 11:02:45;;;;;;;14.63;11.70;;;24.30;99.90;;;;;;4990331;28;20183;-86
2022/08/18 11:05:15;;;;;;;13.73;11.48;;;24.30;99.90;;;;;;4987517;28;20641;-86
2022/08/18 11:07:47;;;;;;;12.77;11.10;;;24.10;99.90;;;;;;4971285;28;20320;-86
2022/08/18 11:10:34;;;;;;;14.43;11.27;;;23.90;99.90;;;;;;4973276;28;20212;-86
2022/08/18 11:13:24;;;;;;;13.55;11.55;;;23.80;99.90;;;;;;4991822;28;20300;-88
2022/08/18 11:16:24;;;;;;;17.40;11.00;;;23.80;99.90;;;;;;4990206;28;20651;-86
2022/08/18 11:18:57;;;;;;;14.18;10.60;;;23.80;99.90;;;;;;4990239;28;20184;-87
2022/08/18 11:21:33;;;;;;;13.07;10.70;;;23.90;99.90;;;;;;4991075;28;20188;-86
2022/08/18 11:24:10;;;;;;;14.07;11.00;;;23.90;99.90;;;;;;4991587;28;20669;-86
2022/08/18 11:26:42;;;;;;;11.80;9.35;;;24.00;99.90;;;;;;4993058;28;20266;-86
2022/08/18 11:29:36;;;;;;;12.70;10.30;;;24.00;99.90;;;;;;4973637;28;20172;-87
2022/08/18 11:32:11;;;;;;;14.48;10.50;;;24.10;99.90;;;;;;4973648;28;20204;-86
2022/08/18 11:34:41;;;;;;;11.38;9.13;;;24.40;99.90;;;;;;4991531;28;20187;-85
2022/08/18 11:37:40;;;;;;;9.68;8.60;;;24.70;99.90;;;;;;4974546;28;20200;-86
2022/08/18 11:40:20;;;;;;;14.30;11.82;;;25.10;99.90;;;;;;4973499;28;20204;-87
2022/08/18 11:43:09;;;;;;;11.38;9.40;;;25.30;99.90;;;;;;4984233;28;20237;-87
2022/08/18 11:45:45;;;;;;;11.82;8.52;;;25.40;99.90;;;;;;4993162;28;20650;-87
2022/08/18 11:48:14;;;;;;;11.35;8.02;;;25.50;99.90;;;;;;5008711;28;20181;-88
2022/08/18 11:51:30;;;;;;;10.52;7.05;;;25.60;99.90;;;;;;4980570;28;20230;-87
2022/08/18 11:54:35;;;;;;;;;;;;;;;;;;;;;
2022/08/18 11:57:44;;;;;;;10.25;7.85;;;26.10;99.70;;;;;;4998132;28;20207;-88
2022/08/18 12:01:08;;;;;;;9.20;7.43;;;26.20;99.40;;;;;;4992462;28;20221;-88
2022/08/18 12:03:43;;;;;;;9.18;7.18;;;26.40;98.70;;;;;;4992653;28;20549;-86
2022/08/18 12:06:18;;;;;;;7.32;6.43;;;26.40;98.90;;;;;;4992267;28;20183;-88
2022/08/18 12:09:25;;;;;;;8.70;7.63;;;26.50;98.40;;;;;;4993262;28;20765;-87
2022/08/18 12:11:59;;;;;;;8.15;6.90;;;26.60;98.30;;;;;;4895771;29;20294;-88
2022/08/18 12:14:33;;;;;;;9.85;6.97;;;26.60;98.80;;;;;;4975705;28;20195;-88
2022/08/18 12:16:58;;;;;;;8.98;6.63;;;26.70;98.20;;;;;;4973856;28;20746;-88
2022/08/18 12:19:27;;;;;;;7.80;6.57;;;26.80;98.30;;;;;;4973337;28;20334;-87
2022/08/18 12:22:00;;;;;;;7.72;6.22;;;26.80;98.30;;;;;;4988409;28;20179;-89
2022/08/18 12:24:28;;;;;;;8.05;6.82;;;27.00;98.00;;;;;;4992516;28;20219;-87
2022/08/18 12:26:55;;;;;;;7.90;6.72;;;27.00;97.30;;;;;;4992786;28;20175;-88
2022/08/18 12:29:21;;;;;;;7.55;5.82;;;27.00;97.60;;;;;;5010282;28;20195;-86
2022/08/18 12:31:51;;;;;;;7.47;6.25;;;27.00;97.20;;;;;;5010376;28;20183;-86
2022/08/18 12:34:18;;;;;;;6.88;6.18;;;27.00;97.10;;;;;;4989732;28;20207;-88
2022/08/18 12:36:45;;;;;;;6.97;6.28;;;27.10;97.00;;;;;;4988398;28;20787;-89
2022/08/18 12:39:10;;;;;;;6.97;5.72;;;27.20;95.80;;;;;;4992874;28;20558;-89
2022/08/18 12:41:36;;;;;;;5.65;5.15;;;27.20;96.70;;;;;;4992732;28;20168;-89
2022/08/18 12:44:02;;;;;;;7.50;5.47;;;27.20;96.70;;;;;;4996804;28;20182;-86
2022/08/18 12:46:29;;;;;;;7.57;5.90;;;27.30;96.30;;;;;;4996653;28;20171;-87
2022/08/18 12:48:55;;;;;;;7.35;5.97;;;27.40;96.70;;;;;;4996523;28;20179;-86
2022/08/18 12:51:22;;;;;;;7.43;5.90;;;27.40;96.30;;;;;;4996395;28;20298;-87
2022/08/18 12:53:48;;;;;;;6.75;4.95;;;27.60;95.90;;;;;;4996184;28;20163;-88
2022/08/18 12:56:25;;;;;;;5.53;5.00;;;27.70;95.20;;;;;;4996303;28;20538;-87
2022/08/18 12:58:54;;;;;;;5.70;5.18;;;27.80;95.30;;;;;;4976861;28;20195;-87
2022/08/18 13:01:20;;;;;;;7.65;5.43;;;27.80;94.60;;;;;;4976636;28;20172;-88
2022/08/18 13:03:47;;;;;;;6.15;5.00;;;27.80;94.50;;;;;;4995380;28;20201;-87
2022/08/18 13:06:14;;;;;;;6.60;5.70;;;27.80;94.40;;;;;;4996272;28;20611;-89
2022/08/18 13:08:40;;;;;;;6.68;5.70;;;27.70;95.00;;;;;;4990417;28;20193;-89
2022/08/18 13:11:09;;;;;;;5.93;5.25;;;27.70;94.50;;;;;;4995994;28;20285;-87
2022/08/18 13:13:37;;;;;;;5.55;4.90;;;27.60;94.30;;;;;;5013018;28;20156;-86
2022/08/18 13:16:05;;;;;;;7.13;5.10;;;27.50;94.40;;;;;;4984316;28;20590;-87
2022/08/18 13:18:30;;;;;;;5.45;4.93;;;27.60;94.50;;;;;;4977034;28;20563;-85
2022/08/18 13:20:57;;;;;;;6.85;5.47;;;27.80;95.10;;;;;;4976661;28;20211;-84
2022/08/18 13:23:26;;;;;;;7.32;5.43;;;28.00;95.20;;;;;;4987367;28;20199;-86